createdAt,value
2023-05-10T00:02:04.170Z,11.70
2023-05-10T00:04:30.894Z,11.69
2023-05-10T00:06:57.558Z,11.67
2023-05-10T00:09:24.106Z,11.67
2023-05-10T00:11:50.766Z,11.67
2023-05-10T00:14:17.921Z,11.66
2023-05-10T00:16:44.537Z,11.68
2023-05-10T00:19:11.452Z,11.64
2023-05-10T00:21:37.986Z,11.67
2023-05-10T00:24:04.911Z,11.67
2023-05-10T00:26:31.469Z,11.67
2023-05-10T00:28:59.551Z,11.65
2023-05-10T00:31:26.456Z,11.64
2023-05-10T00:33:52.986Z,11.64
2023-05-10T00:36:19.522Z,11.67
2023-05-10T00:38:47.340Z,11.69
2023-05-10T00:41:14.000Z,11.69
2023-05-10T00:43:40.509Z,11.65
2023-05-10T00:46:07.498Z,11.65
2023-05-10T00:48:34.462Z,11.67
2023-05-10T00:51:02.628Z,11.66
2023-05-10T00:53:32.029Z,11.69
2023-05-10T00:55:58.724Z,11.68
2023-05-10T00:58:28.997Z,11.68
2023-05-10T01:00:57.213Z,11.72
2023-05-10T01:03:23.888Z,11.71
2023-05-10T01:05:50.917Z,11.71
2023-05-10T01:08:17.533Z,11.75
2023-05-10T01:10:44.771Z,11.72
2023-05-10T01:13:12.332Z,11.75
2023-05-10T01:15:39.991Z,11.76
2023-05-10T01:18:07.348Z,11.77
2023-05-10T01:20:43.074Z,11.78
2023-05-10T01:23:51.106Z,11.79
2023-05-10T01:26:26.268Z,11.77
2023-05-10T01:29:30.539Z,11.79
2023-05-10T01:32:02.607Z,11.78
2023-05-10T01:34:36.934Z,11.79
2023-05-10T01:37:14.609Z,11.77
2023-05-10T01:40:01.312Z,11.77
2023-05-10T01:42:36.938Z,11.76
2023-05-10T01:45:13.828Z,11.77
2023-05-10T01:47:44.425Z,11.80
2023-05-10T01:50:29.741Z,11.77
2023-05-10T01:52:57.851Z,11.79
2023-05-10T01:55:28.564Z,11.76
2023-05-10T01:58:11.141Z,11.75
2023-05-10T02:00:41.212Z,11.76
2023-05-10T02:03:09.816Z,11.71
2023-05-10T02:05:37.721Z,11.74
2023-05-10T02:08:07.926Z,11.73
2023-05-10T02:10:36.488Z,11.74
2023-05-10T02:13:04.588Z,11.70
2023-05-10T02:15:32.261Z,11.74
2023-05-10T02:18:01.071Z,11.77
2023-05-10T02:20:28.274Z,11.72
2023-05-10T02:22:57.130Z,11.74
2023-05-10T02:25:25.190Z,11.74
2023-05-10T02:27:55.033Z,11.73
2023-05-10T02:30:23.939Z,11.72
2023-05-10T02:32:51.621Z,11.68
2023-05-10T02:35:18.581Z,11.70
2023-05-10T02:37:46.564Z,11.63
2023-05-10T02:40:14.279Z,11.62
2023-05-10T02:42:44.716Z,11.60
2023-05-10T02:45:19.376Z,11.53
2023-05-10T02:47:45.983Z,11.59
2023-05-10T02:50:12.694Z,11.58
2023-05-10T02:52:47.398Z,11.58
2023-05-10T02:55:17.292Z,11.55
2023-05-10T02:57:53.546Z,11.60
2023-05-10T03:00:20.358Z,11.58
2023-05-10T03:02:46.934Z,11.60
2023-05-10T03:05:13.532Z,11.57
2023-05-10T03:07:40.256Z,11.50
2023-05-10T03:10:07.473Z,11.52
2023-05-10T03:12:46.831Z,11.53
2023-05-10T03:15:47.070Z,11.53
2023-05-10T03:18:23.373Z,11.46
2023-05-10T03:20:55.592Z,11.48
2023-05-10T03:23:27.859Z,11.46
2023-05-10T03:25:54.909Z,11.44
2023-05-10T03:28:22.098Z,11.39
2023-05-10T03:30:49.500Z,11.43
2023-05-10T03:33:16.285Z,11.40
2023-05-10T03:35:43.116Z,11.37
2023-05-10T03:38:09.683Z,11.35
2023-05-10T03:40:36.278Z,11.42
2023-05-10T03:43:02.896Z,11.38
2023-05-10T03:45:29.703Z,11.39
2023-05-10T03:47:56.366Z,11.34
2023-05-10T03:50:23.132Z,11.33
2023-05-10T03:52:50.042Z,11.36
2023-05-10T03:55:17.283Z,11.34
2023-05-10T03:57:43.893Z,11.34
2023-05-10T04:00:11.089Z,11.34
2023-05-10T04:02:38.605Z,11.33
2023-05-10T04:05:05.696Z,11.34
2023-05-10T04:07:32.311Z,11.36
2023-05-10T04:09:58.924Z,11.38
2023-05-10T04:12:25.667Z,11.41
2023-05-10T04:14:52.187Z,11.39
2023-05-10T04:17:19.012Z,11.38
2023-05-10T04:19:45.684Z,11.35
2023-05-10T04:22:12.242Z,11.34
2023-05-10T04:24:38.755Z,11.30
2023-05-10T04:27:05.399Z,11.33
2023-05-10T04:29:32.092Z,11.28
2023-05-10T04:31:58.821Z,11.34
2023-05-10T04:34:26.538Z,11.33
2023-05-10T04:36:53.111Z,11.29
2023-05-10T04:39:20.068Z,11.26
2023-05-10T04:41:46.742Z,11.29
2023-05-10T04:44:13.314Z,11.27
2023-05-10T04:46:40.161Z,11.26
2023-05-10T04:49:06.798Z,11.17
2023-05-10T04:51:33.542Z,11.22
2023-05-10T04:54:06.153Z,11.21
2023-05-10T04:56:34.092Z,11.22
2023-05-10T04:59:00.731Z,11.16
2023-05-10T05:01:27.300Z,11.18
2023-05-10T05:03:54.294Z,11.12
2023-05-10T05:06:22.160Z,11.12
2023-05-10T05:08:50.515Z,11.15
2023-05-10T05:11:18.196Z,11.16
2023-05-10T05:13:44.846Z,11.23
2023-05-10T05:16:12.478Z,11.21
2023-05-10T05:18:39.395Z,11.27
2023-05-10T05:21:19.306Z,11.31
2023-05-10T05:23:46.374Z,11.38
2023-05-10T05:26:13.089Z,11.38
2023-05-10T05:28:39.700Z,11.41
2023-05-10T05:31:07.002Z,11.54
2023-05-10T05:33:33.558Z,11.51
2023-05-10T05:36:04.924Z,11.57
2023-05-10T05:38:31.649Z,11.56
2023-05-10T05:40:59.073Z,11.57
2023-05-10T05:43:25.789Z,11.54
2023-05-10T05:45:55.247Z,11.56
2023-05-10T05:48:22.058Z,11.55
2023-05-10T05:50:48.595Z,11.52
2023-05-10T05:53:15.450Z,11.53
2023-05-10T05:55:42.030Z,11.49
2023-05-10T05:58:08.527Z,11.51
2023-05-10T06:00:35.296Z,11.52
2023-05-10T06:03:01.969Z,11.56
2023-05-10T06:05:28.582Z,11.50
2023-05-10T06:07:55.098Z,11.40
2023-05-10T06:10:21.632Z,11.46
2023-05-10T06:12:48.248Z,11.42
2023-05-10T06:15:15.023Z,11.47
2023-05-10T06:17:41.772Z,11.47
2023-05-10T06:20:09.144Z,11.47
2023-05-10T06:22:35.753Z,11.42
2023-05-10T06:25:03.052Z,11.46
2023-05-10T06:27:29.658Z,11.48
2023-05-10T06:30:02.148Z,11.53
2023-05-10T06:32:32.378Z,11.53
2023-05-10T06:34:59.347Z,11.55
2023-05-10T06:37:25.883Z,11.52
2023-05-10T06:39:52.584Z,11.58
2023-05-10T06:42:19.194Z,11.59
2023-05-10T06:44:45.793Z,11.66
2023-05-10T06:47:12.329Z,11.68
2023-05-10T06:49:38.971Z,11.68
2023-05-10T06:52:05.536Z,11.71
2023-05-10T06:54:32.133Z,11.74
2023-05-10T06:56:58.856Z,11.75
2023-05-10T06:59:25.501Z,11.83
2023-05-10T07:01:52.189Z,11.93
2023-05-10T07:04:18.931Z,11.98
2023-05-10T07:06:47.263Z,12.03
2023-05-10T07:09:14.479Z,11.98
2023-05-10T07:11:41.236Z,12.02
2023-05-10T07:14:07.816Z,12.07
2023-05-10T07:16:34.439Z,12.13
2023-05-10T07:19:01.092Z,12.06
2023-05-10T07:21:29.705Z,12.03
2023-05-10T07:23:56.452Z,12.05
2023-05-10T07:26:23.022Z,12.05
2023-05-10T07:28:49.503Z,12.12
2023-05-10T07:31:16.092Z,12.15
2023-05-10T07:33:42.711Z,12.14
2023-05-10T07:36:09.361Z,12.05
2023-05-10T07:38:35.939Z,12.13
2023-05-10T07:41:02.486Z,12.12
2023-05-10T07:43:29.069Z,12.05
2023-05-10T07:45:56.404Z,12.08
2023-05-10T07:48:23.055Z,12.14
2023-05-10T07:50:49.616Z,12.11
2023-05-10T07:53:16.160Z,12.20
2023-05-10T07:55:42.731Z,12.33
2023-05-10T07:58:09.264Z,12.31
2023-05-10T08:00:35.936Z,12.51
2023-05-10T08:03:02.626Z,12.57
2023-05-10T08:05:29.207Z,12.57
2023-05-10T08:07:55.860Z,12.50
2023-05-10T08:10:22.376Z,12.51
2023-05-10T08:12:48.934Z,12.55
2023-05-10T08:15:15.745Z,12.51
2023-05-10T08:17:42.625Z,12.45
2023-05-10T08:20:09.656Z,12.42
2023-05-10T08:22:36.205Z,12.38
2023-05-10T08:25:02.774Z,12.50
2023-05-10T08:27:29.284Z,12.40
2023-05-10T08:29:55.855Z,12.52
2023-05-10T08:32:22.456Z,12.69
2023-05-10T08:34:49.067Z,12.74
2023-05-10T08:37:15.718Z,12.84
2023-05-10T08:39:42.351Z,13.14
2023-05-10T08:42:10.798Z,13.34
2023-05-10T08:44:37.996Z,13.47
2023-05-10T08:47:08.531Z,13.54
2023-05-10T08:49:35.823Z,13.80
2023-05-10T08:52:08.363Z,13.96
2023-05-10T08:54:35.415Z,13.96
2023-05-10T08:57:02.505Z,13.85
2023-05-10T08:59:29.641Z,13.76
2023-05-10T09:01:59.003Z,13.63
2023-05-10T09:04:26.264Z,13.63
2023-05-10T09:06:53.093Z,13.62
2023-05-10T09:09:21.466Z,13.80
2023-05-10T09:11:48.637Z,14.01
2023-05-10T09:14:16.515Z,14.25
2023-05-10T09:16:43.600Z,14.41
2023-05-10T09:19:10.442Z,14.59
2023-05-10T09:21:39.273Z,14.74
2023-05-10T09:24:09.482Z,14.76
2023-05-10T09:26:46.450Z,14.80
2023-05-10T09:29:14.163Z,14.64
2023-05-10T09:31:48.774Z,14.74
2023-05-10T09:34:29.926Z,14.67
2023-05-10T09:36:59.012Z,14.59
2023-05-10T09:39:36.959Z,14.69
2023-05-10T09:42:06.367Z,14.71
2023-05-10T09:44:34.105Z,14.70
2023-05-10T09:47:04.363Z,14.58
2023-05-10T09:49:31.420Z,14.47
2023-05-10T09:52:06.566Z,14.53
2023-05-10T09:54:34.631Z,14.42
2023-05-10T09:57:01.736Z,14.34
2023-05-10T09:59:29.779Z,14.14
2023-05-10T10:02:01.167Z,14.03
2023-05-10T10:04:28.475Z,13.93
2023-05-10T10:07:05.630Z,13.91
2023-05-10T10:09:33.266Z,13.99
2023-05-10T10:12:03.883Z,14.18
2023-05-10T10:14:30.794Z,14.42
2023-05-10T10:17:07.655Z,14.58
2023-05-10T10:19:36.959Z,14.63
2023-05-10T10:22:03.937Z,14.78
2023-05-10T10:24:30.883Z,14.96
2023-05-10T10:27:06.642Z,15.18
2023-05-10T10:29:42.273Z,15.20
2023-05-10T10:32:50.545Z,15.12
2023-05-10T10:35:17.654Z,15.07
2023-05-10T10:37:49.016Z,15.14
2023-05-10T10:40:27.941Z,15.23
2023-05-10T10:42:55.841Z,15.36
2023-05-10T10:45:23.372Z,15.39
2023-05-10T10:47:51.016Z,15.51
2023-05-10T10:50:17.802Z,15.67
2023-05-10T10:52:45.245Z,15.69
2023-05-10T10:55:14.860Z,15.56
2023-05-10T10:57:41.456Z,15.70
2023-05-10T11:00:24.727Z,15.63
2023-05-10T11:03:22.087Z,15.54
2023-05-10T11:05:49.812Z,15.44
2023-05-10T11:08:30.873Z,15.46
2023-05-10T11:11:00.522Z,15.51
2023-05-10T11:13:40.434Z,15.33
2023-05-10T11:16:26.397Z,15.33
2023-05-10T11:18:55.242Z,15.19
2023-05-10T11:21:22.116Z,15.11
2023-05-10T11:23:49.747Z,15.03
2023-05-10T11:26:16.376Z,14.72
2023-05-10T11:28:46.166Z,14.68
2023-05-10T11:31:17.296Z,14.63
2023-05-10T11:33:49.059Z,14.72
2023-05-10T11:36:17.760Z,14.68
2023-05-10T11:38:45.005Z,14.81
2023-05-10T11:41:13.262Z,14.95
2023-05-10T11:43:40.954Z,15.10
2023-05-10T11:46:09.205Z,15.33
2023-05-10T11:48:35.828Z,15.49
2023-05-10T11:51:03.191Z,15.59
2023-05-10T11:53:33.450Z,15.63
2023-05-10T11:56:11.180Z,15.51
2023-05-10T11:58:39.128Z,15.42
2023-05-10T12:01:07.673Z,15.34
2023-05-10T12:03:35.308Z,15.18
2023-05-10T12:06:03.090Z,15.17
2023-05-10T12:08:31.054Z,15.12
2023-05-10T12:11:08.665Z,14.95
2023-05-10T12:13:42.731Z,14.93
2023-05-10T12:16:22.483Z,14.92
2023-05-10T12:18:53.428Z,14.97
2023-05-10T12:21:21.863Z,15.02
2023-05-10T12:23:51.258Z,15.08
2023-05-10T12:26:18.227Z,15.15
2023-05-10T12:28:45.381Z,15.20
2023-05-10T12:31:12.025Z,15.13
2023-05-10T12:33:43.536Z,15.13
2023-05-10T12:36:17.301Z,15.28
2023-05-10T12:38:48.606Z,15.45
2023-05-10T12:41:18.164Z,15.34
2023-05-10T12:43:46.359Z,15.37
2023-05-10T12:46:15.413Z,15.60
2023-05-10T12:48:43.924Z,15.80
2023-05-10T12:51:12.725Z,15.86
2023-05-10T12:53:42.751Z,15.96
2023-05-10T12:56:10.934Z,16.13
2023-05-10T12:58:37.557Z,16.26
2023-05-10T13:01:05.223Z,16.30
2023-05-10T13:03:31.806Z,16.32
2023-05-10T13:05:58.510Z,16.35
2023-05-10T13:08:25.229Z,16.22
2023-05-10T13:10:51.811Z,16.36
2023-05-10T13:13:19.264Z,16.45
2023-05-10T13:15:45.970Z,16.47
2023-05-10T13:18:12.642Z,16.46
2023-05-10T13:20:39.436Z,16.31
2023-05-10T13:23:06.070Z,16.10
2023-05-10T13:25:32.708Z,15.85
2023-05-10T13:27:59.244Z,15.87
2023-05-10T13:30:26.149Z,15.87
2023-05-10T13:32:52.815Z,15.94
2023-05-10T13:35:19.474Z,15.63
2023-05-10T13:37:46.059Z,15.58
2023-05-10T13:40:12.897Z,15.35
2023-05-10T13:42:39.524Z,15.18
2023-05-10T13:45:06.875Z,14.96
2023-05-10T13:47:33.465Z,14.97
2023-05-10T13:50:00.053Z,14.88
2023-05-10T13:52:27.386Z,14.85
2023-05-10T13:54:55.960Z,14.87
2023-05-10T13:57:23.102Z,14.85
2023-05-10T13:59:49.976Z,14.80
2023-05-10T14:02:16.661Z,14.80
2023-05-10T14:04:46.533Z,14.70
2023-05-10T14:07:13.064Z,14.84
2023-05-10T14:09:39.577Z,14.90
2023-05-10T14:12:06.159Z,14.94
2023-05-10T14:14:32.756Z,14.98
2023-05-10T14:17:00.319Z,15.03
2023-05-10T14:19:28.136Z,15.09
2023-05-10T14:21:54.728Z,15.12
2023-05-10T14:24:21.303Z,15.20
2023-05-10T14:26:47.880Z,15.17
2023-05-10T14:29:14.380Z,15.09
2023-05-10T14:31:41.561Z,15.22
2023-05-10T14:34:08.158Z,15.27
2023-05-10T14:36:34.716Z,15.40
2023-05-10T14:39:01.302Z,15.48
2023-05-10T14:41:27.984Z,15.57
2023-05-10T14:43:54.524Z,15.32
2023-05-10T14:46:21.179Z,15.16
2023-05-10T14:48:47.772Z,15.33
2023-05-10T14:51:14.532Z,15.27
2023-05-10T14:53:41.175Z,15.26
2023-05-10T14:56:08.142Z,15.27
2023-05-10T14:58:34.794Z,15.45
2023-05-10T15:01:01.961Z,15.51
2023-05-10T15:03:29.266Z,15.40
2023-05-10T15:05:58.596Z,15.30
2023-05-10T15:08:28.842Z,15.31
2023-05-10T15:10:56.891Z,15.29
2023-05-10T15:13:23.530Z,15.26
2023-05-10T15:15:50.193Z,15.10
2023-05-10T15:18:16.832Z,15.09
2023-05-10T15:20:43.364Z,15.10
2023-05-10T15:23:10.035Z,15.27
2023-05-10T15:25:38.219Z,15.40
2023-05-10T15:28:05.533Z,15.41
2023-05-10T15:30:32.197Z,15.58
2023-05-10T15:32:59.017Z,15.50
2023-05-10T15:35:26.961Z,15.64
2023-05-10T15:37:53.528Z,15.89
2023-05-10T15:40:20.450Z,16.18
2023-05-10T15:42:46.995Z,16.22
2023-05-10T15:45:14.119Z,16.30
2023-05-10T15:47:40.948Z,16.43
2023-05-10T15:50:08.459Z,16.30
2023-05-10T15:52:35.258Z,16.31
2023-05-10T15:55:01.927Z,16.25
2023-05-10T15:57:28.569Z,16.28
2023-05-10T15:59:56.352Z,16.09
2023-05-10T16:02:23.547Z,16.02
2023-05-10T16:04:50.372Z,15.90
2023-05-10T16:07:16.924Z,15.88
2023-05-10T16:09:44.050Z,15.76
2023-05-10T16:12:10.901Z,15.69
2023-05-10T16:14:37.670Z,15.52
2023-05-10T16:17:04.762Z,15.56
2023-05-10T16:19:32.087Z,15.75
2023-05-10T16:21:58.869Z,15.83
2023-05-10T16:24:26.523Z,15.96
2023-05-10T16:26:53.157Z,16.00
2023-05-10T16:29:27.005Z,15.97
2023-05-10T16:31:53.954Z,16.06
2023-05-10T16:34:24.197Z,15.85
2023-05-10T16:36:51.608Z,15.84
2023-05-10T16:39:18.189Z,15.69
2023-05-10T16:41:45.169Z,15.63
2023-05-10T16:44:11.705Z,15.63
2023-05-10T16:46:38.336Z,15.57
2023-05-10T16:49:04.924Z,15.48
2023-05-10T16:51:31.526Z,15.48
2023-05-10T16:53:58.305Z,15.45
2023-05-10T16:56:24.908Z,15.46
2023-05-10T16:58:51.659Z,15.28
2023-05-10T17:01:18.863Z,15.29
2023-05-10T17:03:45.635Z,15.37
2023-05-10T17:06:12.253Z,15.24
2023-05-10T17:08:38.789Z,15.20
2023-05-10T17:11:05.476Z,15.22
2023-05-10T17:13:32.187Z,15.18
2023-05-10T17:15:58.890Z,15.29
2023-05-10T17:18:26.763Z,15.19
2023-05-10T17:20:53.457Z,15.24
2023-05-10T17:23:20.087Z,15.05
2023-05-10T17:25:46.656Z,15.08
2023-05-10T17:28:13.252Z,15.06
2023-05-10T17:30:39.864Z,14.98
2023-05-10T17:33:06.412Z,14.74
2023-05-10T17:35:32.916Z,14.74
2023-05-10T17:37:59.435Z,14.67
2023-05-10T17:40:26.036Z,14.59
2023-05-10T17:42:52.669Z,14.64
2023-05-10T17:45:20.053Z,14.48
2023-05-10T17:47:46.790Z,14.52
2023-05-10T17:50:13.408Z,14.35
2023-05-10T17:52:40.019Z,14.28
2023-05-10T17:55:07.151Z,14.29
2023-05-10T17:57:33.889Z,14.28
2023-05-10T18:00:02.280Z,14.39
2023-05-10T18:02:28.972Z,14.15
2023-05-10T18:04:57.560Z,14.33
2023-05-10T18:07:27.104Z,14.33
2023-05-10T18:09:53.677Z,14.28
2023-05-10T18:12:20.225Z,14.25
2023-05-10T18:14:46.817Z,14.16
2023-05-10T18:17:13.379Z,14.02
2023-05-10T18:19:40.225Z,14.02
2023-05-10T18:22:09.699Z,13.85
2023-05-10T18:24:38.890Z,13.91
2023-05-10T18:27:08.753Z,13.94
2023-05-10T18:29:36.259Z,13.91
2023-05-10T18:32:05.725Z,13.78
2023-05-10T18:34:32.303Z,13.76
2023-05-10T18:36:59.487Z,13.67
2023-05-10T18:39:26.017Z,13.69
2023-05-10T18:41:52.640Z,13.71
2023-05-10T18:44:19.296Z,13.64
2023-05-10T18:46:46.469Z,13.61
2023-05-10T18:49:13.188Z,13.63
2023-05-10T18:51:39.734Z,13.56
2023-05-10T18:54:06.408Z,13.53
2023-05-10T18:56:33.635Z,13.56
2023-05-10T18:59:00.409Z,13.41
2023-05-10T19:01:26.967Z,13.53
2023-05-10T19:03:53.516Z,13.52
2023-05-10T19:06:20.153Z,13.50
2023-05-10T19:08:46.713Z,13.52
2023-05-10T19:11:13.262Z,13.48
2023-05-10T19:13:39.846Z,13.49
2023-05-10T19:16:14.098Z,13.45
2023-05-10T19:18:41.084Z,13.36
2023-05-10T19:21:08.950Z,13.43
2023-05-10T19:23:35.537Z,13.28
2023-05-10T19:26:02.188Z,13.22
2023-05-10T19:28:28.768Z,13.22
2023-05-10T19:30:55.339Z,13.18
2023-05-10T19:33:22.008Z,13.12
2023-05-10T19:35:52.188Z,13.04
2023-05-10T19:38:23.047Z,13.10
2023-05-10T19:40:58.097Z,12.94
2023-05-10T19:43:31.239Z,12.99
2023-05-10T19:46:00.631Z,13.02
2023-05-10T19:48:27.543Z,13.01
2023-05-10T19:50:59.208Z,12.93
2023-05-10T19:53:25.767Z,12.83
2023-05-10T19:55:52.306Z,12.92
2023-05-10T19:58:18.775Z,12.86
2023-05-10T20:00:45.550Z,12.90
2023-05-10T20:03:12.175Z,12.76
2023-05-10T20:05:38.765Z,12.77
2023-05-10T20:08:05.314Z,12.72
2023-05-10T20:10:31.837Z,12.67
2023-05-10T20:12:59.133Z,12.64
2023-05-10T20:15:25.700Z,12.65
2023-05-10T20:17:53.292Z,12.63
2023-05-10T20:20:20.620Z,12.62
2023-05-10T20:22:48.573Z,12.53
2023-05-10T20:25:16.222Z,12.57
2023-05-10T20:27:43.264Z,12.59
2023-05-10T20:30:10.495Z,12.62
2023-05-10T20:32:37.887Z,12.63
2023-05-10T20:35:05.414Z,12.62
2023-05-10T20:37:32.076Z,12.63
2023-05-10T20:39:58.763Z,12.57
2023-05-10T20:42:25.410Z,12.54
2023-05-10T20:44:52.030Z,12.56
2023-05-10T20:47:18.708Z,12.63
2023-05-10T20:49:45.525Z,12.58
2023-05-10T20:52:12.196Z,12.71
2023-05-10T20:54:38.759Z,12.69
2023-05-10T20:57:05.546Z,12.53
2023-05-10T20:59:32.106Z,12.61
2023-05-10T21:01:58.770Z,12.61
2023-05-10T21:04:25.893Z,12.62
2023-05-10T21:06:53.085Z,12.59
2023-05-10T21:09:19.844Z,12.59
2023-05-10T21:11:46.646Z,12.64
2023-05-10T21:14:13.221Z,12.64
2023-05-10T21:16:39.986Z,12.61
2023-05-10T21:19:07.499Z,12.49
2023-05-10T21:21:34.565Z,12.55
2023-05-10T21:24:01.354Z,12.47
2023-05-10T21:26:28.708Z,12.41
2023-05-10T21:28:59.542Z,12.49
2023-05-10T21:34:14.187Z,12.21
2023-05-10T21:36:41.015Z,12.24
2023-05-10T21:40:00.027Z,12.20
2023-05-10T21:45:39.126Z,12.20
2023-05-10T21:52:17.645Z,12.11
2023-05-10T21:54:51.639Z,12.33
2023-05-10T21:57:29.144Z,12.22
2023-05-10T21:59:55.968Z,12.09
2023-05-10T22:02:29.565Z,12.18
2023-05-10T22:05:59.058Z,12.05
2023-05-10T22:12:13.072Z,12.05
2023-05-10T22:14:39.714Z,12.16
2023-05-10T22:17:09.208Z,12.24
2023-05-10T22:19:40.108Z,12.31
2023-05-10T22:22:08.760Z,12.04
2023-05-10T22:24:35.454Z,12.16
2023-05-10T22:27:08.143Z,12.14
2023-05-10T22:29:48.057Z,11.99
2023-05-10T22:32:14.692Z,12.13
2023-05-10T22:34:43.258Z,12.06
2023-05-10T22:37:09.946Z,12.18
2023-05-10T22:39:36.600Z,12.10
2023-05-10T22:42:03.374Z,12.14
2023-05-10T22:44:30.055Z,12.17
2023-05-10T22:46:59.845Z,12.18
2023-05-10T22:49:26.453Z,12.15
2023-05-10T22:51:53.054Z,12.11
2023-05-10T22:54:22.743Z,12.22
2023-05-10T22:56:52.296Z,12.21
2023-05-10T22:59:19.526Z,12.14
2023-05-10T23:01:48.235Z,12.09
2023-05-10T23:04:15.822Z,12.10
2023-05-10T23:06:42.391Z,12.25
2023-05-10T23:09:09.858Z,12.27
2023-05-10T23:11:36.561Z,12.15
2023-05-10T23:14:03.423Z,12.20
2023-05-10T23:16:33.071Z,12.22
2023-05-10T23:18:59.889Z,12.05
2023-05-10T23:21:26.662Z,11.98
2023-05-10T23:23:55.892Z,12.17
2023-05-10T23:26:22.657Z,12.22
2023-05-10T23:28:49.353Z,12.01
2023-05-10T23:31:16.570Z,12.16
2023-05-10T23:33:49.044Z,12.23
2023-05-10T23:36:15.653Z,12.22
2023-05-10T23:38:42.260Z,12.22
2023-05-10T23:41:08.782Z,12.21
2023-05-10T23:43:35.379Z,12.21
2023-05-10T23:46:02.161Z,12.19
2023-05-10T23:48:28.796Z,12.18
2023-05-10T23:50:55.580Z,12.08
2023-05-10T23:53:22.344Z,12.04
2023-05-10T23:55:49.073Z,11.98
2023-05-10T23:58:15.777Z,11.86
